sensor_id;sensor_type;location;lat;lon;timestamp;P1;durP1;ratioP1;P2;durP2;ratioP2
45650;SDS011;31365;48.858;8.530;2022-07-06T00:01:26;3.42;;;1.80;;
45650;SDS011;31365;48.858;8.530;2022-07-06T00:03:55;1.50;;;1.40;;
45650;SDS011;31365;48.858;8.530;2022-07-06T00:06:23;2.03;;;1.73;;
45650;SDS011;31365;48.858;8.530;2022-07-06T00:08:52;3.03;;;1.95;;
45650;SDS011;31365;48.858;8.530;2022-07-06T00:11:21;2.03;;;1.60;;
45650;SDS011;31365;48.858;8.530;2022-07-06T00:13:51;3.20;;;1.95;;
45650;SDS011;31365;48.858;8.530;2022-07-06T00:16:20;2.00;;;1.60;;
45650;SDS011;31365;48.858;8.530;2022-07-06T00:18:49;2.78;;;1.70;;
45650;SDS011;31365;48.858;8.530;2022-07-06T00:21:17;5.97;;;2.03;;
45650;SDS011;31365;48.858;8.530;2022-07-06T00:28:23;2.55;;;1.45;;
45650;SDS011;31365;48.858;8.530;2022-07-06T00:30:54;3.17;;;1.90;;
45650;SDS011;31365;48.858;8.530;2022-07-06T00:33:23;1.80;;;1.67;;
45650;SDS011;31365;48.858;8.530;2022-07-06T00:35:52;2.95;;;1.50;;
45650;SDS011;31365;48.858;8.530;2022-07-06T00:38:21;2.95;;;1.95;;
45650;SDS011;31365;48.858;8.530;2022-07-06T00:40:50;3.08;;;1.80;;
45650;SDS011;31365;48.858;8.530;2022-07-06T00:43:18;3.17;;;1.70;;
45650;SDS011;31365;48.858;8.530;2022-07-06T00:45:46;3.55;;;1.45;;
45650;SDS011;31365;48.858;8.530;2022-07-06T00:48:17;3.30;;;1.30;;
45650;SDS011;31365;48.858;8.530;2022-07-06T00:50:45;1.65;;;1.38;;
45650;SDS011;31365;48.858;8.530;2022-07-06T00:53:14;4.35;;;1.70;;
45650;SDS011;31365;48.858;8.530;2022-07-06T00:55:43;1.95;;;1.50;;
45650;SDS011;31365;48.858;8.530;2022-07-06T00:58:11;3.42;;;1.88;;
45650;SDS011;31365;48.858;8.530;2022-07-06T01:00:40;3.58;;;1.63;;
45650;SDS011;31365;48.858;8.530;2022-07-06T01:03:11;2.40;;;1.60;;
45650;SDS011;31365;48.858;8.530;2022-07-06T01:05:41;1.58;;;1.48;;
45650;SDS011;31365;48.858;8.530;2022-07-06T01:08:11;3.70;;;1.92;;
45650;SDS011;31365;48.858;8.530;2022-07-06T01:10:40;3.38;;;1.65;;
45650;SDS011;31365;48.858;8.530;2022-07-06T01:13:09;2.72;;;1.65;;
45650;SDS011;31365;48.858;8.530;2022-07-06T01:15:38;1.75;;;1.65;;
45650;SDS011;31365;48.858;8.530;2022-07-06T01:18:06;2.05;;;1.83;;
45650;SDS011;31365;48.858;8.530;2022-07-06T01:20:40;5.90;;;1.77;;
45650;SDS011;31365;48.858;8.530;2022-07-06T01:23:09;1.65;;;1.48;;
45650;SDS011;31365;48.858;8.530;2022-07-06T01:25:37;2.70;;;1.52;;
45650;SDS011;31365;48.858;8.530;2022-07-06T01:28:06;3.38;;;1.98;;
45650;SDS011;31365;48.858;8.530;2022-07-06T01:30:35;2.57;;;1.57;;
45650;SDS011;31365;48.858;8.530;2022-07-06T01:33:03;1.98;;;1.52;;
45650;SDS011;31365;48.858;8.530;2022-07-06T01:35:32;2.95;;;1.80;;
45650;SDS011;31365;48.858;8.530;2022-07-06T01:38:06;2.30;;;2.00;;
45650;SDS011;31365;48.858;8.530;2022-07-06T01:40:34;2.83;;;2.00;;
45650;SDS011;31365;48.858;8.530;2022-07-06T01:43:02;3.72;;;1.70;;
45650;SDS011;31365;48.858;8.530;2022-07-06T01:45:31;1.90;;;1.50;;
45650;SDS011;31365;48.858;8.530;2022-07-06T01:48:00;1.73;;;1.63;;
45650;SDS011;31365;48.858;8.530;2022-07-06T01:50:33;2.95;;;1.90;;
45650;SDS011;31365;48.858;8.530;2022-07-06T01:53:02;5.53;;;2.78;;
45650;SDS011;31365;48.858;8.530;2022-07-06T01:55:31;4.17;;;1.83;;
45650;SDS011;31365;48.858;8.530;2022-07-06T01:57:59;2.90;;;1.77;;
45650;SDS011;31365;48.858;8.530;2022-07-06T02:00:28;2.97;;;2.10;;
45650;SDS011;31365;48.858;8.530;2022-07-06T02:02:57;3.00;;;1.80;;
45650;SDS011;31365;48.858;8.530;2022-07-06T02:05:25;4.05;;;2.00;;
45650;SDS011;31365;48.858;8.530;2022-07-06T02:07:54;3.97;;;1.97;;
45650;SDS011;31365;48.858;8.530;2022-07-06T02:10:22;4.53;;;1.80;;
45650;SDS011;31365;48.858;8.530;2022-07-06T02:12:52;2.47;;;1.97;;
45650;SDS011;31365;48.858;8.530;2022-07-06T02:15:21;2.30;;;2.10;;
45650;SDS011;31365;48.858;8.530;2022-07-06T02:17:50;2.50;;;1.87;;
45650;SDS011;31365;48.858;8.530;2022-07-06T02:20:18;3.47;;;2.00;;
45650;SDS011;31365;48.858;8.530;2022-07-06T02:22:46;3.90;;;2.23;;
45650;SDS011;31365;48.858;8.530;2022-07-06T02:25:16;4.93;;;2.20;;
45650;SDS011;31365;48.858;8.530;2022-07-06T02:27:45;3.47;;;2.07;;
45650;SDS011;31365;48.858;8.530;2022-07-06T02:30:15;4.80;;;2.33;;
45650;SDS011;31365;48.858;8.530;2022-07-06T02:32:44;2.63;;;2.30;;
45650;SDS011;31365;48.858;8.530;2022-07-06T02:35:13;5.07;;;3.20;;
45650;SDS011;31365;48.858;8.530;2022-07-06T02:37:42;2.47;;;2.17;;
45650;SDS011;31365;48.858;8.530;2022-07-06T02:40:11;4.10;;;2.47;;
45650;SDS011;31365;48.858;8.530;2022-07-06T02:42:40;2.80;;;2.30;;
45650;SDS011;31365;48.858;8.530;2022-07-06T02:45:10;5.73;;;2.50;;
45650;SDS011;31365;48.858;8.530;2022-07-06T02:47:41;3.13;;;2.67;;
45650;SDS011;31365;48.858;8.530;2022-07-06T02:50:09;4.32;;;2.60;;
45650;SDS011;31365;48.858;8.530;2022-07-06T02:52:39;3.27;;;2.63;;
45650;SDS011;31365;48.858;8.530;2022-07-06T02:55:09;5.17;;;2.47;;
45650;SDS011;31365;48.858;8.530;2022-07-06T02:57:38;5.57;;;2.50;;
45650;SDS011;31365;48.858;8.530;2022-07-06T03:00:07;3.13;;;2.27;;
45650;SDS011;31365;48.858;8.530;2022-07-06T03:02:38;3.27;;;2.13;;
45650;SDS011;31365;48.858;8.530;2022-07-06T03:05:09;4.50;;;2.33;;
45650;SDS011;31365;48.858;8.530;2022-07-06T03:07:38;2.87;;;2.13;;
45650;SDS011;31365;48.858;8.530;2022-07-06T03:10:07;3.60;;;2.47;;
45650;SDS011;31365;48.858;8.530;2022-07-06T03:12:36;3.13;;;2.57;;
45650;SDS011;31365;48.858;8.530;2022-07-06T03:15:05;5.43;;;2.73;;
45650;SDS011;31365;48.858;8.530;2022-07-06T03:17:38;3.80;;;2.40;;
45650;SDS011;31365;48.858;8.530;2022-07-06T03:20:09;4.37;;;2.40;;
45650;SDS011;31365;48.858;8.530;2022-07-06T03:22:39;4.43;;;2.73;;
45650;SDS011;31365;48.858;8.530;2022-07-06T03:25:09;2.90;;;2.60;;
45650;SDS011;31365;48.858;8.530;2022-07-06T03:27:39;4.03;;;2.73;;
45650;SDS011;31365;48.858;8.530;2022-07-06T03:30:09;2.97;;;2.20;;
45650;SDS011;31365;48.858;8.530;2022-07-06T03:32:42;4.77;;;2.27;;
45650;SDS011;31365;48.858;8.530;2022-07-06T03:35:14;2.90;;;2.60;;
45650;SDS011;31365;48.858;8.530;2022-07-06T03:37:43;3.17;;;2.10;;
45650;SDS011;31365;48.858;8.530;2022-07-06T03:40:13;4.80;;;2.40;;
45650;SDS011;31365;48.858;8.530;2022-07-06T03:42:45;4.03;;;2.50;;
45650;SDS011;31365;48.858;8.530;2022-07-06T03:45:14;3.03;;;2.63;;
45650;SDS011;31365;48.858;8.530;2022-07-06T03:47:43;6.50;;;2.90;;
45650;SDS011;31365;48.858;8.530;2022-07-06T03:50:13;3.47;;;2.40;;
45650;SDS011;31365;48.858;8.530;2022-07-06T03:52:44;3.80;;;2.53;;
45650;SDS011;31365;48.858;8.530;2022-07-06T03:55:13;3.33;;;2.70;;
45650;SDS011;31365;48.858;8.530;2022-07-06T03:57:47;5.57;;;2.83;;
45650;SDS011;31365;48.858;8.530;2022-07-06T04:00:19;3.33;;;2.47;;
45650;SDS011;31365;48.858;8.530;2022-07-06T04:02:56;4.77;;;2.63;;
45650;SDS011;31365;48.858;8.530;2022-07-06T04:05:29;2.70;;;2.17;;
45650;SDS011;31365;48.858;8.530;2022-07-06T04:07:58;4.60;;;2.40;;
45650;SDS011;31365;48.858;8.530;2022-07-06T04:10:34;3.20;;;2.40;;
45650;SDS011;31365;48.858;8.530;2022-07-06T04:13:02;5.57;;;2.50;;
45650;SDS011;31365;48.858;8.530;2022-07-06T04:15:31;3.83;;;2.67;;
45650;SDS011;31365;48.858;8.530;2022-07-06T04:17:59;5.53;;;2.73;;
45650;SDS011;31365;48.858;8.530;2022-07-06T04:20:33;3.97;;;2.60;;
45650;SDS011;31365;48.858;8.530;2022-07-06T04:23:02;5.80;;;2.80;;
45650;SDS011;31365;48.858;8.530;2022-07-06T04:25:31;7.93;;;2.90;;
45650;SDS011;31365;48.858;8.530;2022-07-06T04:28:01;6.50;;;2.33;;
45650;SDS011;31365;48.858;8.530;2022-07-06T04:30:34;3.13;;;2.13;;
45650;SDS011;31365;48.858;8.530;2022-07-06T04:33:06;4.17;;;2.57;;
45650;SDS011;31365;48.858;8.530;2022-07-06T04:35:36;3.63;;;2.40;;
45650;SDS011;31365;48.858;8.530;2022-07-06T04:38:05;4.50;;;2.87;;
45650;SDS011;31365;48.858;8.530;2022-07-06T04:40:33;3.93;;;2.63;;
45650;SDS011;31365;48.858;8.530;2022-07-06T04:43:06;3.57;;;2.70;;
45650;SDS011;31365;48.858;8.530;2022-07-06T04:45:36;4.20;;;2.37;;
45650;SDS011;31365;48.858;8.530;2022-07-06T04:48:05;5.90;;;2.73;;
45650;SDS011;31365;48.858;8.530;2022-07-06T04:50:36;6.20;;;2.77;;
45650;SDS011;31365;48.858;8.530;2022-07-06T04:53:11;3.77;;;2.00;;
45650;SDS011;31365;48.858;8.530;2022-07-06T04:55:40;4.70;;;2.27;;
45650;SDS011;31365;48.858;8.530;2022-07-06T04:58:09;5.13;;;3.17;;
45650;SDS011;31365;48.858;8.530;2022-07-06T05:00:38;6.43;;;2.60;;
45650;SDS011;31365;48.858;8.530;2022-07-06T05:03:06;3.40;;;2.40;;
45650;SDS011;31365;48.858;8.530;2022-07-06T05:05:35;3.27;;;2.40;;
45650;SDS011;31365;48.858;8.530;2022-07-06T05:08:05;3.30;;;2.23;;
45650;SDS011;31365;48.858;8.530;2022-07-06T05:10:34;3.50;;;2.20;;
45650;SDS011;31365;48.858;8.530;2022-07-06T05:13:02;3.50;;;2.40;;
45650;SDS011;31365;48.858;8.530;2022-07-06T05:15:30;2.90;;;1.93;;
45650;SDS011;31365;48.858;8.530;2022-07-06T05:17:58;2.83;;;2.40;;
45650;SDS011;31365;48.858;8.530;2022-07-06T05:20:27;6.87;;;2.70;;
45650;SDS011;31365;48.858;8.530;2022-07-06T05:22:57;2.47;;;2.10;;
45650;SDS011;31365;48.858;8.530;2022-07-06T05:25:29;4.60;;;2.57;;
45650;SDS011;31365;48.858;8.530;2022-07-06T05:27:59;4.13;;;2.27;;
45650;SDS011;31365;48.858;8.530;2022-07-06T05:30:28;2.10;;;1.90;;
45650;SDS011;31365;48.858;8.530;2022-07-06T05:32:56;2.85;;;2.55;;
45650;SDS011;31365;48.858;8.530;2022-07-06T05:35:25;3.33;;;2.20;;
45650;SDS011;31365;48.858;8.530;2022-07-06T05:38:15;3.22;;;2.10;;
45650;SDS011;31365;48.858;8.530;2022-07-06T05:40:43;2.25;;;1.95;;
45650;SDS011;31365;48.858;8.530;2022-07-06T05:43:12;3.90;;;2.10;;
45650;SDS011;31365;48.858;8.530;2022-07-06T05:45:41;4.60;;;2.13;;
45650;SDS011;31365;48.858;8.530;2022-07-06T05:48:09;5.40;;;2.00;;
45650;SDS011;31365;48.858;8.530;2022-07-06T05:50:56;4.27;;;2.33;;
45650;SDS011;31365;48.858;8.530;2022-07-06T05:53:26;3.05;;;1.88;;
45650;SDS011;31365;48.858;8.530;2022-07-06T05:55:55;3.93;;;2.40;;
45650;SDS011;31365;48.858;8.530;2022-07-06T05:58:26;3.35;;;2.20;;
45650;SDS011;31365;48.858;8.530;2022-07-06T06:00:57;2.53;;;1.92;;
45650;SDS011;31365;48.858;8.530;2022-07-06T06:03:26;3.85;;;2.38;;
45650;SDS011;31365;48.858;8.530;2022-07-06T06:05:55;2.70;;;2.05;;
45650;SDS011;31365;48.858;8.530;2022-07-06T06:08:26;3.25;;;2.42;;
45650;SDS011;31365;48.858;8.530;2022-07-06T06:10:55;2.28;;;2.08;;
45650;SDS011;31365;48.858;8.530;2022-07-06T06:13:25;5.35;;;2.40;;
45650;SDS011;31365;48.858;8.530;2022-07-06T06:15:54;3.78;;;2.03;;
45650;SDS011;31365;48.858;8.530;2022-07-06T06:18:22;3.40;;;2.15;;
45650;SDS011;31365;48.858;8.530;2022-07-06T06:20:51;2.58;;;1.77;;
45650;SDS011;31365;48.858;8.530;2022-07-06T06:23:21;4.38;;;2.60;;
45650;SDS011;31365;48.858;8.530;2022-07-06T06:25:50;4.30;;;2.28;;
45650;SDS011;31365;48.858;8.530;2022-07-06T06:28:19;5.38;;;2.20;;
45650;SDS011;31365;48.858;8.530;2022-07-06T06:30:47;3.45;;;2.10;;
45650;SDS011;31365;48.858;8.530;2022-07-06T06:33:16;3.20;;;2.17;;
45650;SDS011;31365;48.858;8.530;2022-07-06T06:35:47;4.03;;;2.28;;
45650;SDS011;31365;48.858;8.530;2022-07-06T06:38:18;5.10;;;2.03;;
45650;SDS011;31365;48.858;8.530;2022-07-06T06:40:50;4.13;;;2.45;;
45650;SDS011;31365;48.858;8.530;2022-07-06T06:43:20;4.43;;;1.83;;
45650;SDS011;31365;48.858;8.530;2022-07-06T06:46:21;4.90;;;2.65;;
45650;SDS011;31365;48.858;8.530;2022-07-06T06:48:49;4.03;;;2.30;;
45650;SDS011;31365;48.858;8.530;2022-07-06T06:51:17;3.30;;;2.25;;
45650;SDS011;31365;48.858;8.530;2022-07-06T06:53:47;3.85;;;1.85;;
45650;SDS011;31365;48.858;8.530;2022-07-06T06:56:16;3.70;;;2.40;;
45650;SDS011;31365;48.858;8.530;2022-07-06T06:58:45;3.45;;;2.08;;
45650;SDS011;31365;48.858;8.530;2022-07-06T07:01:34;7.75;;;2.00;;
45650;SDS011;31365;48.858;8.530;2022-07-06T07:04:02;2.45;;;2.25;;
45650;SDS011;31365;48.858;8.530;2022-07-06T07:06:32;2.88;;;2.40;;
45650;SDS011;31365;48.858;8.530;2022-07-06T07:09:01;4.90;;;2.28;;
45650;SDS011;31365;48.858;8.530;2022-07-06T07:11:31;2.08;;;1.88;;
45650;SDS011;31365;48.858;8.530;2022-07-06T07:13:59;2.72;;;2.03;;
45650;SDS011;31365;48.858;8.530;2022-07-06T07:16:28;2.47;;;1.98;;
45650;SDS011;31365;48.858;8.530;2022-07-06T07:18:57;3.33;;;2.40;;
45650;SDS011;31365;48.858;8.530;2022-07-06T07:21:25;4.68;;;2.30;;
45650;SDS011;31365;48.858;8.530;2022-07-06T07:23:53;5.15;;;2.25;;
45650;SDS011;31365;48.858;8.530;2022-07-06T07:26:21;7.22;;;2.58;;
45650;SDS011;31365;48.858;8.530;2022-07-06T07:28:51;6.35;;;2.63;;
45650;SDS011;31365;48.858;8.530;2022-07-06T07:31:19;5.32;;;2.17;;
45650;SDS011;31365;48.858;8.530;2022-07-06T07:33:47;3.22;;;2.20;;
45650;SDS011;31365;48.858;8.530;2022-07-06T07:36:24;2.65;;;2.05;;
45650;SDS011;31365;48.858;8.530;2022-07-06T07:38:52;2.95;;;2.10;;
45650;SDS011;31365;48.858;8.530;2022-07-06T07:41:20;4.82;;;2.28;;
45650;SDS011;31365;48.858;8.530;2022-07-06T07:43:50;5.25;;;2.70;;
45650;SDS011;31365;48.858;8.530;2022-07-06T07:46:18;2.72;;;2.20;;
45650;SDS011;31365;48.858;8.530;2022-07-06T07:48:47;2.35;;;2.08;;
45650;SDS011;31365;48.858;8.530;2022-07-06T07:51:17;3.95;;;2.30;;
45650;SDS011;31365;48.858;8.530;2022-07-06T07:53:46;2.13;;;1.98;;
45650;SDS011;31365;48.858;8.530;2022-07-06T07:56:14;3.72;;;2.50;;
45650;SDS011;31365;48.858;8.530;2022-07-06T07:58:42;2.65;;;2.25;;
45650;SDS011;31365;48.858;8.530;2022-07-06T08:01:15;4.70;;;2.10;;
45650;SDS011;31365;48.858;8.530;2022-07-06T08:03:43;2.70;;;1.90;;
45650;SDS011;31365;48.858;8.530;2022-07-06T08:06:11;5.40;;;2.20;;
45650;SDS011;31365;48.858;8.530;2022-07-06T08:08:40;6.82;;;2.58;;
45650;SDS011;31365;48.858;8.530;2022-07-06T08:11:08;2.33;;;2.10;;
45650;SDS011;31365;48.858;8.530;2022-07-06T08:13:45;4.68;;;2.88;;
45650;SDS011;31365;48.858;8.530;2022-07-06T08:16:15;5.43;;;2.35;;
45650;SDS011;31365;48.858;8.530;2022-07-06T08:18:43;6.72;;;2.70;;
45650;SDS011;31365;48.858;8.530;2022-07-06T08:21:11;3.42;;;2.20;;
45650;SDS011;31365;48.858;8.530;2022-07-06T08:23:50;4.68;;;2.20;;
45650;SDS011;31365;48.858;8.530;2022-07-06T08:26:19;7.32;;;3.00;;
45650;SDS011;31365;48.858;8.530;2022-07-06T08:28:48;4.13;;;2.55;;
45650;SDS011;31365;48.858;8.530;2022-07-06T08:31:18;4.63;;;2.58;;
45650;SDS011;31365;48.858;8.530;2022-07-06T08:34:07;3.78;;;2.65;;
45650;SDS011;31365;48.858;8.530;2022-07-06T08:36:35;2.65;;;2.40;;
45650;SDS011;31365;48.858;8.530;2022-07-06T08:39:04;3.50;;;2.67;;
45650;SDS011;31365;48.858;8.530;2022-07-06T08:41:32;3.25;;;2.70;;
45650;SDS011;31365;48.858;8.530;2022-07-06T08:44:01;3.58;;;2.90;;
45650;SDS011;31365;48.858;8.530;2022-07-06T08:46:32;4.20;;;2.90;;
45650;SDS011;31365;48.858;8.530;2022-07-06T08:49:03;2.85;;;2.45;;
45650;SDS011;31365;48.858;8.530;2022-07-06T08:51:34;5.47;;;2.63;;
45650;SDS011;31365;48.858;8.530;2022-07-06T08:54:03;2.85;;;2.58;;
45650;SDS011;31365;48.858;8.530;2022-07-06T08:56:31;3.28;;;2.30;;
45650;SDS011;31365;48.858;8.530;2022-07-06T08:59:00;3.72;;;2.55;;
45650;SDS011;31365;48.858;8.530;2022-07-06T09:01:28;4.28;;;2.60;;
45650;SDS011;31365;48.858;8.530;2022-07-06T09:03:59;4.13;;;2.33;;
45650;SDS011;31365;48.858;8.530;2022-07-06T09:06:32;4.38;;;2.63;;
45650;SDS011;31365;48.858;8.530;2022-07-06T09:09:03;4.38;;;2.20;;
45650;SDS011;31365;48.858;8.530;2022-07-06T09:11:34;5.20;;;2.40;;
45650;SDS011;31365;48.858;8.530;2022-07-06T09:14:03;4.40;;;2.83;;
45650;SDS011;31365;48.858;8.530;2022-07-06T09:16:31;4.55;;;2.85;;
45650;SDS011;31365;48.858;8.530;2022-07-06T09:19:06;4.45;;;2.63;;
45650;SDS011;31365;48.858;8.530;2022-07-06T09:21:35;6.38;;;2.95;;
45650;SDS011;31365;48.858;8.530;2022-07-06T09:24:06;4.30;;;2.53;;
45650;SDS011;31365;48.858;8.530;2022-07-06T09:26:37;3.60;;;2.10;;
45650;SDS011;31365;48.858;8.530;2022-07-06T09:29:06;7.70;;;3.10;;
45650;SDS011;31365;48.858;8.530;2022-07-06T09:31:34;5.15;;;2.60;;
45650;SDS011;31365;48.858;8.530;2022-07-06T09:34:04;3.88;;;3.05;;
45650;SDS011;31365;48.858;8.530;2022-07-06T09:36:42;4.38;;;2.63;;
45650;SDS011;31365;48.858;8.530;2022-07-06T09:39:15;5.07;;;2.05;;
45650;SDS011;31365;48.858;8.530;2022-07-06T09:41:51;4.50;;;2.60;;
45650;SDS011;31365;48.858;8.530;2022-07-06T09:44:22;4.65;;;2.50;;
45650;SDS011;31365;48.858;8.530;2022-07-06T09:46:53;5.57;;;2.28;;
45650;SDS011;31365;48.858;8.530;2022-07-06T09:49:26;4.65;;;2.60;;
45650;SDS011;31365;48.858;8.530;2022-07-06T09:51:56;5.32;;;2.38;;
45650;SDS011;31365;48.858;8.530;2022-07-06T09:54:26;4.80;;;2.83;;
45650;SDS011;31365;48.858;8.530;2022-07-06T09:56:55;4.65;;;3.00;;
45650;SDS011;31365;48.858;8.530;2022-07-06T09:59:32;4.57;;;2.83;;
45650;SDS011;31365;48.858;8.530;2022-07-06T10:02:02;6.82;;;3.35;;
45650;SDS011;31365;48.858;8.530;2022-07-06T10:04:35;5.80;;;2.80;;
45650;SDS011;31365;48.858;8.530;2022-07-06T10:07:06;4.80;;;2.38;;
45650;SDS011;31365;48.858;8.530;2022-07-06T10:09:35;3.38;;;2.03;;
45650;SDS011;31365;48.858;8.530;2022-07-06T10:12:05;5.93;;;3.42;;
45650;SDS011;31365;48.858;8.530;2022-07-06T10:14:39;5.03;;;3.00;;
45650;SDS011;31365;48.858;8.530;2022-07-06T10:17:16;3.25;;;2.33;;
45650;SDS011;31365;48.858;8.530;2022-07-06T10:19:47;4.43;;;2.72;;
45650;SDS011;31365;48.858;8.530;2022-07-06T10:22:17;7.78;;;2.35;;
45650;SDS011;31365;48.858;8.530;2022-07-06T10:24:47;4.75;;;2.60;;
45650;SDS011;31365;48.858;8.530;2022-07-06T10:27:17;3.00;;;2.42;;
45650;SDS011;31365;48.858;8.530;2022-07-06T10:29:45;3.70;;;2.40;;
45650;SDS011;31365;48.858;8.530;2022-07-06T10:32:14;3.10;;;2.65;;
45650;SDS011;31365;48.858;8.530;2022-07-06T10:34:49;3.22;;;2.60;;
45650;SDS011;31365;48.858;8.530;2022-07-06T10:37:21;4.10;;;2.58;;
45650;SDS011;31365;48.858;8.530;2022-07-06T10:39:52;4.10;;;2.47;;
45650;SDS011;31365;48.858;8.530;2022-07-06T10:42:42;4.15;;;3.00;;
45650;SDS011;31365;48.858;8.530;2022-07-06T10:45:19;4.35;;;2.70;;
45650;SDS011;31365;48.858;8.530;2022-07-06T10:48:17;2.53;;;2.00;;
45650;SDS011;31365;48.858;8.530;2022-07-06T10:50:52;6.93;;;2.50;;
45650;SDS011;31365;48.858;8.530;2022-07-06T10:53:22;5.13;;;2.67;;
45650;SDS011;31365;48.858;8.530;2022-07-06T10:55:53;3.92;;;2.42;;
45650;SDS011;31365;48.858;8.530;2022-07-06T10:58:36;4.07;;;2.38;;
45650;SDS011;31365;48.858;8.530;2022-07-06T11:01:08;5.15;;;2.72;;
45650;SDS011;31365;48.858;8.530;2022-07-06T11:03:39;3.28;;;2.28;;
45650;SDS011;31365;48.858;8.530;2022-07-06T11:06:12;8.65;;;2.60;;
45650;SDS011;31365;48.858;8.530;2022-07-06T11:08:50;2.40;;;1.88;;
45650;SDS011;31365;48.858;8.530;2022-07-06T11:11:24;4.57;;;2.00;;
45650;SDS011;31365;48.858;8.530;2022-07-06T11:13:58;5.53;;;2.35;;
45650;SDS011;31365;48.858;8.530;2022-07-06T11:16:29;4.10;;;2.35;;
45650;SDS011;31365;48.858;8.530;2022-07-06T11:19:02;7.95;;;2.22;;
45650;SDS011;31365;48.858;8.530;2022-07-06T11:21:39;3.90;;;2.55;;
45650;SDS011;31365;48.858;8.530;2022-07-06T11:24:14;3.92;;;1.70;;
45650;SDS011;31365;48.858;8.530;2022-07-06T11:26:44;4.40;;;2.05;;
45650;SDS011;31365;48.858;8.530;2022-07-06T11:29:15;2.17;;;1.98;;
45650;SDS011;31365;48.858;8.530;2022-07-06T11:31:47;3.38;;;2.10;;
45650;SDS011;31365;48.858;8.530;2022-07-06T11:34:20;3.70;;;1.90;;
45650;SDS011;31365;48.858;8.530;2022-07-06T11:36:55;3.47;;;1.77;;
45650;SDS011;31365;48.858;8.530;2022-07-06T11:39:26;3.80;;;2.00;;
45650;SDS011;31365;48.858;8.530;2022-07-06T11:41:55;4.38;;;2.45;;
45650;SDS011;31365;48.858;8.530;2022-07-06T11:44:25;4.55;;;2.40;;
45650;SDS011;31365;48.858;8.530;2022-07-06T11:46:54;3.03;;;2.08;;
45650;SDS011;31365;48.858;8.530;2022-07-06T11:49:26;3.10;;;1.90;;
45650;SDS011;31365;48.858;8.530;2022-07-06T11:51:56;3.28;;;1.90;;
45650;SDS011;31365;48.858;8.530;2022-07-06T11:54:25;4.15;;;2.28;;
45650;SDS011;31365;48.858;8.530;2022-07-06T11:56:55;3.42;;;1.90;;
45650;SDS011;31365;48.858;8.530;2022-07-06T11:59:26;2.70;;;1.95;;
45650;SDS011;31365;48.858;8.530;2022-07-06T12:01:59;2.80;;;2.10;;
45650;SDS011;31365;48.858;8.530;2022-07-06T12:04:30;4.25;;;1.92;;
45650;SDS011;31365;48.858;8.530;2022-07-06T12:07:02;3.00;;;1.88;;
45650;SDS011;31365;48.858;8.530;2022-07-06T12:09:33;3.35;;;1.58;;
45650;SDS011;31365;48.858;8.530;2022-07-06T12:12:03;1.70;;;1.55;;
45650;SDS011;31365;48.858;8.530;2022-07-06T12:14:35;2.78;;;1.42;;
45650;SDS011;31365;48.858;8.530;2022-07-06T12:17:06;3.47;;;1.80;;
45650;SDS011;31365;48.858;8.530;2022-07-06T12:19:36;4.07;;;1.70;;
45650;SDS011;31365;48.858;8.530;2022-07-06T12:22:08;1.45;;;1.17;;
45650;SDS011;31365;48.858;8.530;2022-07-06T12:24:37;3.50;;;1.98;;
45650;SDS011;31365;48.858;8.530;2022-07-06T12:27:13;4.25;;;1.88;;
45650;SDS011;31365;48.858;8.530;2022-07-06T12:29:43;2.15;;;1.48;;
45650;SDS011;31365;48.858;8.530;2022-07-06T12:32:16;5.32;;;1.63;;
45650;SDS011;31365;48.858;8.530;2022-07-06T12:34:46;2.95;;;1.45;;
45650;SDS011;31365;48.858;8.530;2022-07-06T12:37:17;3.72;;;1.45;;
45650;SDS011;31365;48.858;8.530;2022-07-06T12:39:46;2.65;;;1.58;;
45650;SDS011;31365;48.858;8.530;2022-07-06T12:42:16;3.00;;;1.67;;
45650;SDS011;31365;48.858;8.530;2022-07-06T12:44:47;3.17;;;1.58;;
45650;SDS011;31365;48.858;8.530;2022-07-06T12:47:19;2.75;;;1.60;;
45650;SDS011;31365;48.858;8.530;2022-07-06T12:50:03;2.80;;;1.50;;
45650;SDS011;31365;48.858;8.530;2022-07-06T12:52:36;3.10;;;1.73;;
45650;SDS011;31365;48.858;8.530;2022-07-06T12:55:05;2.63;;;1.42;;
45650;SDS011;31365;48.858;8.530;2022-07-06T12:57:42;3.25;;;1.20;;
45650;SDS011;31365;48.858;8.530;2022-07-06T13:00:13;5.65;;;1.67;;
45650;SDS011;31365;48.858;8.530;2022-07-06T13:02:44;2.40;;;1.58;;
45650;SDS011;31365;48.858;8.530;2022-07-06T13:05:34;1.95;;;1.30;;
45650;SDS011;31365;48.858;8.530;2022-07-06T13:08:06;3.10;;;1.65;;
45650;SDS011;31365;48.858;8.530;2022-07-06T13:10:36;1.92;;;1.13;;
45650;SDS011;31365;48.858;8.530;2022-07-06T13:13:07;1.45;;;1.35;;
45650;SDS011;31365;48.858;8.530;2022-07-06T13:15:36;3.17;;;1.63;;
45650;SDS011;31365;48.858;8.530;2022-07-06T13:18:04;1.70;;;1.40;;
45650;SDS011;31365;48.858;8.530;2022-07-06T13:20:39;1.50;;;1.30;;
45650;SDS011;31365;48.858;8.530;2022-07-06T13:23:09;3.72;;;1.73;;
45650;SDS011;31365;48.858;8.530;2022-07-06T13:25:37;2.28;;;1.60;;
45650;SDS011;31365;48.858;8.530;2022-07-06T13:28:06;2.17;;;1.48;;
45650;SDS011;31365;48.858;8.530;2022-07-06T13:30:34;1.95;;;1.52;;
45650;SDS011;31365;48.858;8.530;2022-07-06T13:33:02;2.38;;;1.40;;
45650;SDS011;31365;48.858;8.530;2022-07-06T13:35:30;4.68;;;1.13;;
45650;SDS011;31365;48.858;8.530;2022-07-06T13:37:59;3.60;;;1.10;;
45650;SDS011;31365;48.858;8.530;2022-07-06T13:40:29;1.65;;;1.13;;
45650;SDS011;31365;48.858;8.530;2022-07-06T13:42:57;2.92;;;1.38;;
45650;SDS011;31365;48.858;8.530;2022-07-06T13:45:25;1.30;;;1.13;;
45650;SDS011;31365;48.858;8.530;2022-07-06T13:47:54;2.50;;;1.55;;
45650;SDS011;31365;48.858;8.530;2022-07-06T13:50:22;3.08;;;1.25;;
45650;SDS011;31365;48.858;8.530;2022-07-06T13:52:51;1.63;;;1.25;;
45650;SDS011;31365;48.858;8.530;2022-07-06T13:55:19;2.53;;;1.48;;
45650;SDS011;31365;48.858;8.530;2022-07-06T13:57:49;4.60;;;1.92;;
45650;SDS011;31365;48.858;8.530;2022-07-06T14:00:18;3.97;;;1.23;;
45650;SDS011;31365;48.858;8.530;2022-07-06T14:02:46;1.95;;;1.30;;
45650;SDS011;31365;48.858;8.530;2022-07-06T14:05:15;2.20;;;1.30;;
45650;SDS011;31365;48.858;8.530;2022-07-06T14:07:43;2.25;;;1.08;;
45650;SDS011;31365;48.858;8.530;2022-07-06T14:10:11;3.60;;;1.15;;
45650;SDS011;31365;48.858;8.530;2022-07-06T14:12:40;3.03;;;1.20;;
45650;SDS011;31365;48.858;8.530;2022-07-06T14:15:10;4.32;;;1.50;;
45650;SDS011;31365;48.858;8.530;2022-07-06T14:17:39;3.10;;;1.25;;
45650;SDS011;31365;48.858;8.530;2022-07-06T14:20:08;2.15;;;1.17;;
45650;SDS011;31365;48.858;8.530;2022-07-06T14:22:38;1.20;;;1.02;;
45650;SDS011;31365;48.858;8.530;2022-07-06T14:25:07;2.47;;;1.30;;
45650;SDS011;31365;48.858;8.530;2022-07-06T14:27:36;3.63;;;1.23;;
45650;SDS011;31365;48.858;8.530;2022-07-06T14:30:07;1.33;;;0.95;;
45650;SDS011;31365;48.858;8.530;2022-07-06T14:32:38;3.30;;;0.90;;
45650;SDS011;31365;48.858;8.530;2022-07-06T14:35:10;1.75;;;0.80;;
45650;SDS011;31365;48.858;8.530;2022-07-06T14:37:39;1.50;;;1.20;;
45650;SDS011;31365;48.858;8.530;2022-07-06T14:40:08;1.38;;;1.00;;
45650;SDS011;31365;48.858;8.530;2022-07-06T14:42:37;1.65;;;1.15;;
45650;SDS011;31365;48.858;8.530;2022-07-06T14:45:06;2.13;;;0.95;;
45650;SDS011;31365;48.858;8.530;2022-07-06T14:47:36;1.23;;;1.00;;
45650;SDS011;31365;48.858;8.530;2022-07-06T14:50:05;1.17;;;1.08;;
45650;SDS011;31365;48.858;8.530;2022-07-06T14:52:33;0.93;;;0.93;;
45650;SDS011;31365;48.858;8.530;2022-07-06T14:55:02;2.90;;;0.95;;
45650;SDS011;31365;48.858;8.530;2022-07-06T14:57:39;1.85;;;1.17;;
45650;SDS011;31365;48.858;8.530;2022-07-06T15:00:08;1.85;;;0.77;;
45650;SDS011;31365;48.858;8.530;2022-07-06T15:02:39;2.28;;;1.10;;
45650;SDS011;31365;48.858;8.530;2022-07-06T15:05:08;1.23;;;0.98;;
45650;SDS011;31365;48.858;8.530;2022-07-06T15:07:37;1.38;;;0.93;;
45650;SDS011;31365;48.858;8.530;2022-07-06T15:10:07;1.40;;;1.30;;
45650;SDS011;31365;48.858;8.530;2022-07-06T15:12:37;1.50;;;1.08;;